KDRO/DRO METAR and TAF weather

Enter ICAO airport designator
Station Type Date Time Source
KDRO METAR 2021/02/27 09:53 UTC NOAA

KDRO 270953Z AUTO 02007KT 10SM CLR M06/M11 A2975 RMK AO2 SLP089 T10611111


Station Type Date Time Source
KDRO Decoded METAR 2021/02/27 09:53 UTC NOAA

DURANGO-LA PLATA COUNTY AIRPORT , CO, United States (KDRO) 37-09N 107-46W 2035M
Feb 27, 2021 - 04:53 AM EST / 2021.02.27 0953 UTC
Wind: from the NNE (020 degrees) at 8 MPH (7 KT):0
Visibility: 10 mile(s):0
Sky conditions: clear
Temperature: 21.0 F (-6.1 C)
Windchill: 12 F (-11 C):1
Dew Point: 12.0 F (-11.1 C)
Relative Humidity: 67%
Pressure (altimeter): 29.75 in. Hg (1007 hPa)
ob: KDRO 270953Z AUTO 02007KT 10SM CLR M06/M11 A2975 RMK AO2 SLP089 T10611111
cycle: 10

Station Type Date Time Source
KDRO TAF 2021/02/27 06:36 UTC NOAA

TAF KDRO 270534Z 2706/2806 04003KT P6SM FEW250
FM271100 26010KT P6SM BKN250
FM271600 26020G30KT P6SM FEW250
FM280000 30010KT P6SM FEW250

Example: see airport list